createdAt,value
2022-09-12T00:25:52.949Z,1016.88
2022-09-12T00:55:52.993Z,1016.84
2022-09-12T01:25:52.969Z,1016.58
2022-09-12T01:55:52.970Z,1016.37
2022-09-12T02:25:52.970Z,1016.25
2022-09-12T02:55:53.067Z,1016.11
2022-09-12T03:25:52.980Z,1016.12
2022-09-12T03:55:52.970Z,1016.12
2022-09-12T04:25:52.979Z,1016.15
2022-09-12T04:55:52.977Z,1016.12
2022-09-12T05:25:53.004Z,1016.3
2022-09-12T05:55:52.999Z,1016.44
2022-09-12T06:25:52.992Z,1016.56
2022-09-12T06:55:52.995Z,1016.56
2022-09-12T07:25:53.002Z,1016.57
2022-09-12T07:55:52.993Z,1016.59
2022-09-12T08:25:53.023Z,1016.73
2022-09-12T08:55:53.036Z,1016.62
2022-09-12T09:25:53.022Z,1016.49
2022-09-12T09:55:53.034Z,1016.22
2022-09-12T10:25:53.037Z,1016.13
2022-09-12T10:55:53.045Z,1015.96
2022-09-12T11:25:53.038Z,1015.89
2022-09-12T11:55:53.046Z,1015.58
2022-09-12T12:25:53.080Z,1015.4
2022-09-12T12:55:53.046Z,1015.12
2022-09-12T13:25:53.034Z,1014.89
2022-09-12T13:55:53.051Z,1014.58
2022-09-12T14:25:53.077Z,1014.44
2022-09-12T14:55:53.056Z,1014.27
2022-09-12T15:25:53.077Z,1014.04
2022-09-12T15:55:53.095Z,1013.84
2022-09-12T16:25:53.082Z,1013.8
2022-09-12T16:55:53.080Z,1013.43
2022-09-12T17:25:53.097Z,1013.27
2022-09-12T17:55:54.308Z,1013.3
2022-09-12T18:25:53.098Z,1013.49
2022-09-12T18:55:53.102Z,1013.44
2022-09-12T19:25:53.114Z,1013.32
2022-09-12T19:55:53.123Z,1013.15
2022-09-12T20:25:53.123Z,1013.21
2022-09-12T20:55:53.126Z,1013.06
2022-09-12T21:25:53.114Z,1013.05
2022-09-12T21:55:53.129Z,1012.9
2022-09-12T22:25:53.106Z,1012.59
2022-09-12T22:55:53.132Z,1012.53
2022-09-12T23:25:53.153Z,1011.97
2022-09-12T23:55:53.163Z,1012.07
